sensor_id;sensor_type;location;lat;lon;timestamp;P1;durP1;ratioP1;P2;durP2;ratioP2
42726;SDS011;28372;56.832;60.658;2022-12-07T00:01:33;6.72;;;3.03;;
42726;SDS011;28372;56.832;60.658;2022-12-07T00:04:06;7.00;;;2.88;;
42726;SDS011;28372;56.832;60.658;2022-12-07T00:06:39;5.38;;;2.13;;
42726;SDS011;28372;56.832;60.658;2022-12-07T00:09:12;7.03;;;2.88;;
42726;SDS011;28372;56.832;60.658;2022-12-07T00:11:42;7.07;;;2.47;;
42726;SDS011;28372;56.832;60.658;2022-12-07T00:14:11;4.68;;;2.10;;
42726;SDS011;28372;56.832;60.658;2022-12-07T00:16:40;8.20;;;2.60;;
42726;SDS011;28372;56.832;60.658;2022-12-07T00:19:09;8.70;;;2.53;;
42726;SDS011;28372;56.832;60.658;2022-12-07T00:21:38;5.20;;;2.03;;
42726;SDS011;28372;56.832;60.658;2022-12-07T00:24:06;4.65;;;2.33;;
42726;SDS011;28372;56.832;60.658;2022-12-07T00:26:34;6.15;;;2.35;;
42726;SDS011;28372;56.832;60.658;2022-12-07T00:29:20;7.70;;;2.50;;
42726;SDS011;28372;56.832;60.658;2022-12-07T00:31:51;7.60;;;2.63;;
42726;SDS011;28372;56.832;60.658;2022-12-07T00:34:19;6.47;;;2.50;;
42726;SDS011;28372;56.832;60.658;2022-12-07T00:36:48;5.90;;;2.42;;
42726;SDS011;28372;56.832;60.658;2022-12-07T00:39:17;6.38;;;2.30;;
42726;SDS011;28372;56.832;60.658;2022-12-07T00:41:45;7.53;;;2.90;;
42726;SDS011;28372;56.832;60.658;2022-12-07T00:44:12;8.18;;;3.33;;
42726;SDS011;28372;56.832;60.658;2022-12-07T00:46:40;7.25;;;2.78;;
42726;SDS011;28372;56.832;60.658;2022-12-07T00:49:07;7.53;;;3.25;;
42726;SDS011;28372;56.832;60.658;2022-12-07T00:51:35;6.35;;;2.83;;
42726;SDS011;28372;56.832;60.658;2022-12-07T00:54:02;6.90;;;2.75;;
42726;SDS011;28372;56.832;60.658;2022-12-07T00:56:30;5.63;;;2.65;;
42726;SDS011;28372;56.832;60.658;2022-12-07T00:58:59;4.38;;;2.15;;
42726;SDS011;28372;56.832;60.658;2022-12-07T01:01:29;4.75;;;2.40;;
42726;SDS011;28372;56.832;60.658;2022-12-07T01:03:59;4.00;;;2.17;;
42726;SDS011;28372;56.832;60.658;2022-12-07T01:06:29;4.75;;;1.85;;
42726;SDS011;28372;56.832;60.658;2022-12-07T01:08:58;5.43;;;2.53;;
42726;SDS011;28372;56.832;60.658;2022-12-07T01:11:27;7.15;;;2.25;;
42726;SDS011;28372;56.832;60.658;2022-12-07T01:13:57;8.13;;;2.40;;
42726;SDS011;28372;56.832;60.658;2022-12-07T01:16:27;6.10;;;2.58;;
42726;SDS011;28372;56.832;60.658;2022-12-07T01:18:56;7.57;;;2.30;;
42726;SDS011;28372;56.832;60.658;2022-12-07T01:21:26;7.22;;;2.75;;
42726;SDS011;28372;56.832;60.658;2022-12-07T01:23:57;5.72;;;2.00;;
42726;SDS011;28372;56.832;60.658;2022-12-07T01:26:25;4.75;;;2.40;;
42726;SDS011;28372;56.832;60.658;2022-12-07T01:28:53;6.57;;;2.03;;
42726;SDS011;28372;56.832;60.658;2022-12-07T01:31:23;5.65;;;2.05;;
42726;SDS011;28372;56.832;60.658;2022-12-07T01:33:53;4.32;;;2.10;;
42726;SDS011;28372;56.832;60.658;2022-12-07T01:36:31;4.88;;;2.17;;
42726;SDS011;28372;56.832;60.658;2022-12-07T01:39:00;5.70;;;2.72;;
42726;SDS011;28372;56.832;60.658;2022-12-07T01:41:32;5.07;;;2.50;;
42726;SDS011;28372;56.832;60.658;2022-12-07T01:46:56;4.47;;;2.20;;
42726;SDS011;28372;56.832;60.658;2022-12-07T01:49:33;5.28;;;1.98;;
42726;SDS011;28372;56.832;60.658;2022-12-07T01:54:40;4.72;;;2.13;;
42726;SDS011;28372;56.832;60.658;2022-12-07T01:57:10;5.70;;;2.30;;
42726;SDS011;28372;56.832;60.658;2022-12-07T01:59:40;5.22;;;2.20;;
42726;SDS011;28372;56.832;60.658;2022-12-07T02:02:12;7.32;;;2.80;;
42726;SDS011;28372;56.832;60.658;2022-12-07T02:05:04;4.63;;;2.38;;
42726;SDS011;28372;56.832;60.658;2022-12-07T02:07:34;5.07;;;2.22;;
42726;SDS011;28372;56.832;60.658;2022-12-07T02:12:50;4.55;;;2.13;;
42726;SDS011;28372;56.832;60.658;2022-12-07T02:15:26;5.00;;;2.35;;
42726;SDS011;28372;56.832;60.658;2022-12-07T02:20:52;5.35;;;2.20;;
42726;SDS011;28372;56.832;60.658;2022-12-07T02:23:47;7.65;;;2.70;;
42726;SDS011;28372;56.832;60.658;2022-12-07T02:29:23;6.50;;;2.60;;
42726;SDS011;28372;56.832;60.658;2022-12-07T02:34:55;6.88;;;3.00;;
42726;SDS011;28372;56.832;60.658;2022-12-07T02:42:45;5.45;;;2.80;;
42726;SDS011;28372;56.832;60.658;2022-12-07T02:45:18;7.38;;;3.28;;
42726;SDS011;28372;56.832;60.658;2022-12-07T02:47:51;6.80;;;3.10;;
42726;SDS011;28372;56.832;60.658;2022-12-07T02:50:20;5.88;;;2.95;;
42726;SDS011;28372;56.832;60.658;2022-12-07T02:52:48;6.45;;;2.92;;
42726;SDS011;28372;56.832;60.658;2022-12-07T02:55:17;8.20;;;2.95;;
42726;SDS011;28372;56.832;60.658;2022-12-07T02:58:12;7.82;;;3.20;;
42726;SDS011;28372;56.832;60.658;2022-12-07T03:01:14;6.40;;;3.05;;
42726;SDS011;28372;56.832;60.658;2022-12-07T03:04:28;5.60;;;2.70;;
42726;SDS011;28372;56.832;60.658;2022-12-07T03:07:13;6.90;;;2.72;;
42726;SDS011;28372;56.832;60.658;2022-12-07T03:13:04;9.90;;;2.85;;
42726;SDS011;28372;56.832;60.658;2022-12-07T03:15:31;5.47;;;2.55;;
42726;SDS011;28372;56.832;60.658;2022-12-07T03:18:00;5.80;;;2.55;;
42726;SDS011;28372;56.832;60.658;2022-12-07T03:20:31;6.55;;;2.60;;
42726;SDS011;28372;56.832;60.658;2022-12-07T03:23:03;5.30;;;2.65;;
42726;SDS011;28372;56.832;60.658;2022-12-07T03:25:39;6.10;;;2.80;;
42726;SDS011;28372;56.832;60.658;2022-12-07T03:28:16;7.38;;;2.95;;
42726;SDS011;28372;56.832;60.658;2022-12-07T03:30:57;7.55;;;2.50;;
42726;SDS011;28372;56.832;60.658;2022-12-07T03:33:32;4.53;;;2.40;;
42726;SDS011;28372;56.832;60.658;2022-12-07T03:36:07;6.30;;;2.90;;
42726;SDS011;28372;56.832;60.658;2022-12-07T03:38:48;4.93;;;2.35;;
42726;SDS011;28372;56.832;60.658;2022-12-07T03:41:27;5.72;;;2.30;;
42726;SDS011;28372;56.832;60.658;2022-12-07T03:43:57;6.93;;;2.50;;
42726;SDS011;28372;56.832;60.658;2022-12-07T03:49:17;4.67;;;2.47;;
42726;SDS011;28372;56.832;60.658;2022-12-07T03:51:54;5.05;;;2.20;;
42726;SDS011;28372;56.832;60.658;2022-12-07T03:57:26;8.05;;;2.72;;
42726;SDS011;28372;56.832;60.658;2022-12-07T03:59:56;6.43;;;2.28;;
42726;SDS011;28372;56.832;60.658;2022-12-07T04:02:25;8.50;;;2.75;;
42726;SDS011;28372;56.832;60.658;2022-12-07T04:04:55;6.30;;;2.30;;
42726;SDS011;28372;56.832;60.658;2022-12-07T04:07:23;5.47;;;2.45;;
42726;SDS011;28372;56.832;60.658;2022-12-07T04:09:50;5.75;;;2.42;;
42726;SDS011;28372;56.832;60.658;2022-12-07T04:12:18;6.82;;;2.53;;
42726;SDS011;28372;56.832;60.658;2022-12-07T04:14:45;6.03;;;2.80;;
42726;SDS011;28372;56.832;60.658;2022-12-07T04:17:13;5.97;;;2.38;;
42726;SDS011;28372;56.832;60.658;2022-12-07T04:19:41;5.72;;;2.40;;
42726;SDS011;28372;56.832;60.658;2022-12-07T04:22:08;6.97;;;2.80;;
42726;SDS011;28372;56.832;60.658;2022-12-07T04:24:36;5.68;;;2.75;;
42726;SDS011;28372;56.832;60.658;2022-12-07T04:27:03;5.63;;;2.50;;
42726;SDS011;28372;56.832;60.658;2022-12-07T04:29:31;6.32;;;2.58;;
42726;SDS011;28372;56.832;60.658;2022-12-07T04:31:58;5.95;;;2.80;;
42726;SDS011;28372;56.832;60.658;2022-12-07T04:34:26;6.30;;;2.30;;
42726;SDS011;28372;56.832;60.658;2022-12-07T04:36:53;8.25;;;3.03;;
42726;SDS011;28372;56.832;60.658;2022-12-07T04:39:28;6.45;;;2.58;;
42726;SDS011;28372;56.832;60.658;2022-12-07T04:41:56;5.50;;;2.38;;
42726;SDS011;28372;56.832;60.658;2022-12-07T04:44:25;5.97;;;2.45;;
42726;SDS011;28372;56.832;60.658;2022-12-07T04:46:54;6.22;;;2.70;;
42726;SDS011;28372;56.832;60.658;2022-12-07T04:49:22;4.53;;;2.25;;
42726;SDS011;28372;56.832;60.658;2022-12-07T04:51:51;5.78;;;2.47;;
42726;SDS011;28372;56.832;60.658;2022-12-07T04:54:19;6.82;;;2.13;;
42726;SDS011;28372;56.832;60.658;2022-12-07T04:56:46;6.43;;;2.30;;
42726;SDS011;28372;56.832;60.658;2022-12-07T04:59:14;6.35;;;2.65;;
42726;SDS011;28372;56.832;60.658;2022-12-07T05:01:43;4.55;;;2.05;;
42726;SDS011;28372;56.832;60.658;2022-12-07T05:04:11;5.78;;;2.35;;
42726;SDS011;28372;56.832;60.658;2022-12-07T05:06:38;5.47;;;2.40;;
42726;SDS011;28372;56.832;60.658;2022-12-07T05:09:06;4.32;;;2.03;;
42726;SDS011;28372;56.832;60.658;2022-12-07T05:11:34;4.47;;;2.10;;
42726;SDS011;28372;56.832;60.658;2022-12-07T05:16:46;6.00;;;2.47;;
42726;SDS011;28372;56.832;60.658;2022-12-07T05:19:16;4.90;;;2.15;;
42726;SDS011;28372;56.832;60.658;2022-12-07T05:21:45;5.60;;;2.40;;
42726;SDS011;28372;56.832;60.658;2022-12-07T05:24:14;5.22;;;2.60;;
42726;SDS011;28372;56.832;60.658;2022-12-07T05:26:43;7.40;;;3.13;;
42726;SDS011;28372;56.832;60.658;2022-12-07T05:29:12;6.45;;;2.58;;
42726;SDS011;28372;56.832;60.658;2022-12-07T05:31:41;5.70;;;2.60;;
42726;SDS011;28372;56.832;60.658;2022-12-07T05:34:09;6.20;;;2.95;;
42726;SDS011;28372;56.832;60.658;2022-12-07T05:36:37;7.93;;;3.00;;
42726;SDS011;28372;56.832;60.658;2022-12-07T05:39:05;5.75;;;2.80;;
42726;SDS011;28372;56.832;60.658;2022-12-07T05:41:32;6.35;;;2.95;;
42726;SDS011;28372;56.832;60.658;2022-12-07T05:44:18;8.20;;;3.20;;
42726;SDS011;28372;56.832;60.658;2022-12-07T05:46:45;7.10;;;3.22;;
42726;SDS011;28372;56.832;60.658;2022-12-07T05:49:13;7.28;;;3.00;;
42726;SDS011;28372;56.832;60.658;2022-12-07T05:51:41;6.10;;;2.88;;
42726;SDS011;28372;56.832;60.658;2022-12-07T05:54:09;5.65;;;3.10;;
42726;SDS011;28372;56.832;60.658;2022-12-07T05:56:36;7.53;;;3.30;;
42726;SDS011;28372;56.832;60.658;2022-12-07T05:59:04;7.35;;;2.92;;
42726;SDS011;28372;56.832;60.658;2022-12-07T06:04:20;8.45;;;3.13;;
42726;SDS011;28372;56.832;60.658;2022-12-07T06:06:48;5.63;;;2.78;;
42726;SDS011;28372;56.832;60.658;2022-12-07T06:09:16;6.65;;;3.13;;
42726;SDS011;28372;56.832;60.658;2022-12-07T06:11:45;5.10;;;2.88;;
42726;SDS011;28372;56.832;60.658;2022-12-07T06:14:31;10.30;;;3.50;;
42726;SDS011;28372;56.832;60.658;2022-12-07T06:16:59;5.28;;;2.97;;
42726;SDS011;28372;56.832;60.658;2022-12-07T06:19:45;6.75;;;2.90;;
42726;SDS011;28372;56.832;60.658;2022-12-07T06:22:13;5.13;;;2.80;;
42726;SDS011;28372;56.832;60.658;2022-12-07T06:24:51;6.30;;;3.28;;
42726;SDS011;28372;56.832;60.658;2022-12-07T06:27:18;6.28;;;3.13;;
42726;SDS011;28372;56.832;60.658;2022-12-07T06:29:46;6.22;;;3.00;;
42726;SDS011;28372;56.832;60.658;2022-12-07T06:32:14;7.18;;;3.30;;
42726;SDS011;28372;56.832;60.658;2022-12-07T06:34:41;8.23;;;3.53;;
42726;SDS011;28372;56.832;60.658;2022-12-07T06:37:09;6.68;;;3.30;;
42726;SDS011;28372;56.832;60.658;2022-12-07T06:39:36;7.20;;;3.03;;
42726;SDS011;28372;56.832;60.658;2022-12-07T06:42:05;8.32;;;3.53;;
42726;SDS011;28372;56.832;60.658;2022-12-07T06:44:32;7.30;;;3.15;;
42726;SDS011;28372;56.832;60.658;2022-12-07T06:47:00;6.97;;;3.35;;
42726;SDS011;28372;56.832;60.658;2022-12-07T06:49:48;7.63;;;3.38;;
42726;SDS011;28372;56.832;60.658;2022-12-07T06:52:15;8.00;;;3.58;;
42726;SDS011;28372;56.832;60.658;2022-12-07T06:54:43;7.00;;;3.45;;
42726;SDS011;28372;56.832;60.658;2022-12-07T06:57:11;8.35;;;3.78;;
42726;SDS011;28372;56.832;60.658;2022-12-07T06:59:39;6.93;;;3.40;;
42726;SDS011;28372;56.832;60.658;2022-12-07T07:02:07;7.10;;;3.55;;
42726;SDS011;28372;56.832;60.658;2022-12-07T07:04:36;6.20;;;3.50;;
42726;SDS011;28372;56.832;60.658;2022-12-07T07:07:03;7.18;;;3.20;;
42726;SDS011;28372;56.832;60.658;2022-12-07T07:09:31;6.95;;;3.47;;
42726;SDS011;28372;56.832;60.658;2022-12-07T07:11:59;6.95;;;3.00;;
42726;SDS011;28372;56.832;60.658;2022-12-07T07:14:29;7.38;;;3.10;;
42726;SDS011;28372;56.832;60.658;2022-12-07T07:16:57;7.10;;;3.35;;
42726;SDS011;28372;56.832;60.658;2022-12-07T07:19:25;7.53;;;3.38;;
42726;SDS011;28372;56.832;60.658;2022-12-07T07:21:52;5.93;;;3.42;;
42726;SDS011;28372;56.832;60.658;2022-12-07T07:24:20;6.88;;;3.20;;
42726;SDS011;28372;56.832;60.658;2022-12-07T07:26:47;7.45;;;3.30;;
42726;SDS011;28372;56.832;60.658;2022-12-07T07:29:15;10.00;;;3.50;;
42726;SDS011;28372;56.832;60.658;2022-12-07T07:31:42;8.43;;;3.80;;
42726;SDS011;28372;56.832;60.658;2022-12-07T07:34:10;8.50;;;3.95;;
42726;SDS011;28372;56.832;60.658;2022-12-07T07:36:37;7.60;;;3.80;;
42726;SDS011;28372;56.832;60.658;2022-12-07T07:39:05;9.05;;;3.83;;
42726;SDS011;28372;56.832;60.658;2022-12-07T07:41:33;10.15;;;3.95;;
42726;SDS011;28372;56.832;60.658;2022-12-07T07:44:01;8.07;;;3.70;;
42726;SDS011;28372;56.832;60.658;2022-12-07T07:46:29;8.57;;;4.30;;
42726;SDS011;28372;56.832;60.658;2022-12-07T07:48:57;10.23;;;4.00;;
42726;SDS011;28372;56.832;60.658;2022-12-07T07:51:25;7.68;;;3.53;;
42726;SDS011;28372;56.832;60.658;2022-12-07T07:53:55;10.93;;;3.80;;
42726;SDS011;28372;56.832;60.658;2022-12-07T07:56:27;7.60;;;3.28;;
42726;SDS011;28372;56.832;60.658;2022-12-07T07:58:55;6.10;;;3.42;;
42726;SDS011;28372;56.832;60.658;2022-12-07T08:01:23;7.75;;;3.60;;
42726;SDS011;28372;56.832;60.658;2022-12-07T08:03:51;9.68;;;4.03;;
42726;SDS011;28372;56.832;60.658;2022-12-07T08:06:18;8.35;;;3.50;;
42726;SDS011;28372;56.832;60.658;2022-12-07T08:08:46;8.52;;;3.30;;
42726;SDS011;28372;56.832;60.658;2022-12-07T08:11:13;9.50;;;3.40;;
42726;SDS011;28372;56.832;60.658;2022-12-07T08:13:41;6.20;;;2.92;;
42726;SDS011;28372;56.832;60.658;2022-12-07T08:16:09;7.30;;;3.13;;
42726;SDS011;28372;56.832;60.658;2022-12-07T08:18:38;7.25;;;3.15;;
42726;SDS011;28372;56.832;60.658;2022-12-07T08:21:07;6.28;;;2.88;;
42726;SDS011;28372;56.832;60.658;2022-12-07T08:23:38;6.65;;;3.10;;
42726;SDS011;28372;56.832;60.658;2022-12-07T08:26:07;8.70;;;3.13;;
42726;SDS011;28372;56.832;60.658;2022-12-07T08:28:36;10.23;;;3.30;;
42726;SDS011;28372;56.832;60.658;2022-12-07T08:31:09;6.65;;;3.00;;
42726;SDS011;28372;56.832;60.658;2022-12-07T08:33:39;7.50;;;3.22;;
42726;SDS011;28372;56.832;60.658;2022-12-07T08:36:09;6.28;;;3.15;;
42726;SDS011;28372;56.832;60.658;2022-12-07T08:38:39;6.70;;;3.20;;
42726;SDS011;28372;56.832;60.658;2022-12-07T08:41:21;7.53;;;3.30;;
42726;SDS011;28372;56.832;60.658;2022-12-07T08:43:50;7.32;;;3.38;;
42726;SDS011;28372;56.832;60.658;2022-12-07T08:46:19;10.43;;;4.10;;
42726;SDS011;28372;56.832;60.658;2022-12-07T08:51:23;10.23;;;4.45;;
42726;SDS011;28372;56.832;60.658;2022-12-07T08:53:51;8.98;;;4.70;;
42726;SDS011;28372;56.832;60.658;2022-12-07T08:56:20;8.60;;;4.10;;
42726;SDS011;28372;56.832;60.658;2022-12-07T08:58:48;6.32;;;3.58;;
42726;SDS011;28372;56.832;60.658;2022-12-07T09:01:16;8.43;;;3.67;;
42726;SDS011;28372;56.832;60.658;2022-12-07T09:03:43;7.78;;;3.35;;
42726;SDS011;28372;56.832;60.658;2022-12-07T09:06:11;9.75;;;3.42;;
42726;SDS011;28372;56.832;60.658;2022-12-07T09:08:40;7.13;;;3.67;;
42726;SDS011;28372;56.832;60.658;2022-12-07T09:11:13;6.97;;;4.00;;
42726;SDS011;28372;56.832;60.658;2022-12-07T09:13:40;7.30;;;3.30;;
42726;SDS011;28372;56.832;60.658;2022-12-07T09:16:07;7.85;;;3.35;;
42726;SDS011;28372;56.832;60.658;2022-12-07T09:18:35;6.95;;;3.38;;
42726;SDS011;28372;56.832;60.658;2022-12-07T09:21:03;6.25;;;3.33;;
42726;SDS011;28372;56.832;60.658;2022-12-07T09:23:31;7.30;;;3.47;;
42726;SDS011;28372;56.832;60.658;2022-12-07T09:25:59;7.85;;;3.78;;
42726;SDS011;28372;56.832;60.658;2022-12-07T09:28:36;9.10;;;3.53;;
42726;SDS011;28372;56.832;60.658;2022-12-07T09:31:04;9.35;;;2.97;;
42726;SDS011;28372;56.832;60.658;2022-12-07T09:33:55;9.13;;;3.55;;
42726;SDS011;28372;56.832;60.658;2022-12-07T09:36:27;8.45;;;3.22;;
42726;SDS011;28372;56.832;60.658;2022-12-07T09:38:55;8.07;;;3.38;;
42726;SDS011;28372;56.832;60.658;2022-12-07T09:41:23;7.10;;;2.67;;
42726;SDS011;28372;56.832;60.658;2022-12-07T09:43:53;8.25;;;3.55;;
42726;SDS011;28372;56.832;60.658;2022-12-07T09:46:26;6.05;;;2.90;;
42726;SDS011;28372;56.832;60.658;2022-12-07T09:48:54;8.65;;;3.60;;
42726;SDS011;28372;56.832;60.658;2022-12-07T09:51:22;7.55;;;3.38;;
42726;SDS011;28372;56.832;60.658;2022-12-07T09:53:52;6.65;;;3.35;;
42726;SDS011;28372;56.832;60.658;2022-12-07T09:56:22;6.13;;;3.05;;
42726;SDS011;28372;56.832;60.658;2022-12-07T09:59:01;7.53;;;3.35;;
42726;SDS011;28372;56.832;60.658;2022-12-07T10:01:30;6.88;;;3.35;;
42726;SDS011;28372;56.832;60.658;2022-12-07T10:04:09;5.82;;;3.13;;
42726;SDS011;28372;56.832;60.658;2022-12-07T10:06:41;7.28;;;3.13;;
42726;SDS011;28372;56.832;60.658;2022-12-07T10:09:10;5.60;;;2.70;;
42726;SDS011;28372;56.832;60.658;2022-12-07T10:14:37;6.32;;;2.83;;
42726;SDS011;28372;56.832;60.658;2022-12-07T10:17:37;7.45;;;2.90;;
42726;SDS011;28372;56.832;60.658;2022-12-07T10:20:15;6.88;;;3.10;;
42726;SDS011;28372;56.832;60.658;2022-12-07T10:22:56;7.95;;;3.20;;
42726;SDS011;28372;56.832;60.658;2022-12-07T10:25:32;6.00;;;3.00;;
42726;SDS011;28372;56.832;60.658;2022-12-07T10:31:21;7.15;;;3.33;;
42726;SDS011;28372;56.832;60.658;2022-12-07T10:33:36;6.90;;;3.13;;
42726;SDS011;28372;56.832;60.658;2022-12-07T10:36:19;5.43;;;3.08;;
42726;SDS011;28372;56.832;60.658;2022-12-07T10:38:50;6.60;;;3.10;;
42726;SDS011;28372;56.832;60.658;2022-12-07T10:41:30;7.90;;;3.47;;
42726;SDS011;28372;56.832;60.658;2022-12-07T10:43:58;6.95;;;2.80;;
42726;SDS011;28372;56.832;60.658;2022-12-07T10:49:38;7.32;;;2.95;;
42726;SDS011;28372;56.832;60.658;2022-12-07T10:55:05;7.88;;;2.97;;
42726;SDS011;28372;56.832;60.658;2022-12-07T11:00:21;7.47;;;3.20;;
42726;SDS011;28372;56.832;60.658;2022-12-07T11:08:56;6.70;;;3.00;;
42726;SDS011;28372;56.832;60.658;2022-12-07T11:17:06;6.88;;;2.95;;
42726;SDS011;28372;56.832;60.658;2022-12-07T11:22:45;6.03;;;2.80;;
42726;SDS011;28372;56.832;60.658;2022-12-07T11:25:21;6.25;;;2.85;;
42726;SDS011;28372;56.832;60.658;2022-12-07T11:36:45;5.72;;;3.03;;
42726;SDS011;28372;56.832;60.658;2022-12-07T11:41:43;8.05;;;3.05;;
42726;SDS011;28372;56.832;60.658;2022-12-07T11:49:45;5.78;;;2.85;;
42726;SDS011;28372;56.832;60.658;2022-12-07T11:52:21;4.00;;;2.50;;
42726;SDS011;28372;56.832;60.658;2022-12-07T11:54:54;8.32;;;3.20;;
42726;SDS011;28372;56.832;60.658;2022-12-07T11:58:09;6.25;;;2.72;;
42726;SDS011;28372;56.832;60.658;2022-12-07T12:00:17;5.72;;;3.00;;
42726;SDS011;28372;56.832;60.658;2022-12-07T12:05:31;7.90;;;3.33;;
42726;SDS011;28372;56.832;60.658;2022-12-07T12:08:21;7.32;;;2.65;;
42726;SDS011;28372;56.832;60.658;2022-12-07T12:15:18;5.35;;;2.80;;
42726;SDS011;28372;56.832;60.658;2022-12-07T12:23:19;6.07;;;2.90;;
42726;SDS011;28372;56.832;60.658;2022-12-07T12:25:52;6.78;;;3.08;;
42726;SDS011;28372;56.832;60.658;2022-12-07T12:33:48;6.43;;;2.65;;
42726;SDS011;28372;56.832;60.658;2022-12-07T12:38:48;8.43;;;2.70;;
42726;SDS011;28372;56.832;60.658;2022-12-07T12:51:56;8.23;;;3.33;;
42726;SDS011;28372;56.832;60.658;2022-12-07T13:02:24;5.95;;;3.15;;
42726;SDS011;28372;56.832;60.658;2022-12-07T13:10:24;10.38;;;4.15;;
42726;SDS011;28372;56.832;60.658;2022-12-07T13:13:25;9.15;;;3.60;;
42726;SDS011;28372;56.832;60.658;2022-12-07T13:18:37;11.30;;;4.40;;
42726;SDS011;28372;56.832;60.658;2022-12-07T13:23:37;9.68;;;3.90;;
42726;SDS011;28372;56.832;60.658;2022-12-07T13:28:36;9.35;;;4.00;;
42726;SDS011;28372;56.832;60.658;2022-12-07T13:33:57;9.90;;;4.03;;
42726;SDS011;28372;56.832;60.658;2022-12-07T13:36:26;10.63;;;4.15;;
42726;SDS011;28372;56.832;60.658;2022-12-07T13:41:28;10.63;;;4.28;;
42726;SDS011;28372;56.832;60.658;2022-12-07T13:44:05;7.65;;;4.10;;
42726;SDS011;28372;56.832;60.658;2022-12-07T13:49:26;8.95;;;3.60;;
42726;SDS011;28372;56.832;60.658;2022-12-07T13:52:08;8.55;;;3.83;;
42726;SDS011;28372;56.832;60.658;2022-12-07T13:54:49;8.05;;;3.40;;
42726;SDS011;28372;56.832;60.658;2022-12-07T13:57:24;6.72;;;3.20;;
42726;SDS011;28372;56.832;60.658;2022-12-07T13:59:53;7.65;;;3.10;;
42726;SDS011;28372;56.832;60.658;2022-12-07T14:02:29;6.78;;;3.20;;
42726;SDS011;28372;56.832;60.658;2022-12-07T14:08:01;8.85;;;3.65;;
42726;SDS011;28372;56.832;60.658;2022-12-07T14:10:31;5.80;;;2.78;;
42726;SDS011;28372;56.832;60.658;2022-12-07T14:13:21;7.80;;;3.30;;
42726;SDS011;28372;56.832;60.658;2022-12-07T14:15:56;8.18;;;3.47;;
42726;SDS011;28372;56.832;60.658;2022-12-07T14:18:38;8.07;;;3.17;;
42726;SDS011;28372;56.832;60.658;2022-12-07T14:23:38;8.20;;;3.55;;
42726;SDS011;28372;56.832;60.658;2022-12-07T14:26:08;7.53;;;3.67;;
42726;SDS011;28372;56.832;60.658;2022-12-07T14:28:40;8.60;;;3.40;;
42726;SDS011;28372;56.832;60.658;2022-12-07T14:31:21;6.78;;;2.95;;
42726;SDS011;28372;56.832;60.658;2022-12-07T14:33:59;5.47;;;2.88;;
42726;SDS011;28372;56.832;60.658;2022-12-07T14:36:27;6.70;;;3.30;;
42726;SDS011;28372;56.832;60.658;2022-12-07T14:38:54;7.22;;;3.33;;
42726;SDS011;28372;56.832;60.658;2022-12-07T14:41:25;6.25;;;3.13;;
42726;SDS011;28372;56.832;60.658;2022-12-07T14:44:11;7.93;;;3.20;;
42726;SDS011;28372;56.832;60.658;2022-12-07T14:46:59;8.60;;;3.55;;
42726;SDS011;28372;56.832;60.658;2022-12-07T14:49:47;7.07;;;2.58;;
42726;SDS011;28372;56.832;60.658;2022-12-07T14:52:16;7.03;;;3.13;;
42726;SDS011;28372;56.832;60.658;2022-12-07T14:55:29;7.38;;;2.92;;
42726;SDS011;28372;56.832;60.658;2022-12-07T14:57:58;5.60;;;3.00;;
42726;SDS011;28372;56.832;60.658;2022-12-07T15:00:27;7.70;;;3.28;;
42726;SDS011;28372;56.832;60.658;2022-12-07T15:02:55;8.45;;;2.88;;
42726;SDS011;28372;56.832;60.658;2022-12-07T15:05:24;6.82;;;2.90;;
42726;SDS011;28372;56.832;60.658;2022-12-07T15:07:52;6.43;;;2.80;;
42726;SDS011;28372;56.832;60.658;2022-12-07T15:10:21;7.00;;;2.90;;
42726;SDS011;28372;56.832;60.658;2022-12-07T15:12:50;5.18;;;2.63;;
42726;SDS011;28372;56.832;60.658;2022-12-07T15:15:18;6.93;;;3.38;;
42726;SDS011;28372;56.832;60.658;2022-12-07T15:17:45;7.70;;;3.03;;
42726;SDS011;28372;56.832;60.658;2022-12-07T15:20:14;7.85;;;3.10;;
42726;SDS011;28372;56.832;60.658;2022-12-07T15:22:44;5.82;;;2.75;;
42726;SDS011;28372;56.832;60.658;2022-12-07T15:25:14;5.97;;;2.40;;
42726;SDS011;28372;56.832;60.658;2022-12-07T15:27:42;6.40;;;2.90;;
42726;SDS011;28372;56.832;60.658;2022-12-07T15:30:09;5.47;;;2.92;;
42726;SDS011;28372;56.832;60.658;2022-12-07T15:32:37;6.88;;;3.03;;
42726;SDS011;28372;56.832;60.658;2022-12-07T15:35:05;7.15;;;2.88;;
42726;SDS011;28372;56.832;60.658;2022-12-07T15:37:33;8.23;;;2.92;;
42726;SDS011;28372;56.832;60.658;2022-12-07T15:40:00;6.28;;;2.92;;
42726;SDS011;28372;56.832;60.658;2022-12-07T15:42:33;6.40;;;2.42;;
42726;SDS011;28372;56.832;60.658;2022-12-07T15:45:03;5.95;;;2.60;;
42726;SDS011;28372;56.832;60.658;2022-12-07T15:47:42;5.65;;;2.35;;
42726;SDS011;28372;56.832;60.658;2022-12-07T15:50:34;11.43;;;3.58;;
42726;SDS011;28372;56.832;60.658;2022-12-07T15:53:02;7.97;;;3.45;;
42726;SDS011;28372;56.832;60.658;2022-12-07T15:55:29;8.75;;;3.45;;
42726;SDS011;28372;56.832;60.658;2022-12-07T15:57:57;10.65;;;4.20;;
42726;SDS011;28372;56.832;60.658;2022-12-07T16:00:25;8.80;;;3.80;;
42726;SDS011;28372;56.832;60.658;2022-12-07T16:02:52;10.48;;;3.70;;
42726;SDS011;28372;56.832;60.658;2022-12-07T16:05:20;9.93;;;4.00;;
42726;SDS011;28372;56.832;60.658;2022-12-07T16:07:48;12.23;;;4.50;;
42726;SDS011;28372;56.832;60.658;2022-12-07T16:10:15;14.65;;;5.70;;
42726;SDS011;28372;56.832;60.658;2022-12-07T16:12:43;12.60;;;4.63;;
42726;SDS011;28372;56.832;60.658;2022-12-07T16:15:11;14.52;;;5.25;;
42726;SDS011;28372;56.832;60.658;2022-12-07T16:17:38;14.38;;;4.53;;
42726;SDS011;28372;56.832;60.658;2022-12-07T16:20:06;9.25;;;4.00;;
42726;SDS011;28372;56.832;60.658;2022-12-07T16:22:35;10.98;;;3.88;;
42726;SDS011;28372;56.832;60.658;2022-12-07T16:25:02;8.95;;;3.33;;
42726;SDS011;28372;56.832;60.658;2022-12-07T16:27:30;8.65;;;3.30;;
42726;SDS011;28372;56.832;60.658;2022-12-07T16:29:58;8.43;;;3.55;;
42726;SDS011;28372;56.832;60.658;2022-12-07T16:32:28;5.72;;;2.72;;
42726;SDS011;28372;56.832;60.658;2022-12-07T16:34:56;6.50;;;2.83;;
42726;SDS011;28372;56.832;60.658;2022-12-07T16:37:24;8.85;;;3.28;;
42726;SDS011;28372;56.832;60.658;2022-12-07T16:39:52;9.50;;;3.38;;
42726;SDS011;28372;56.832;60.658;2022-12-07T16:42:19;7.95;;;3.00;;
42726;SDS011;28372;56.832;60.658;2022-12-07T16:44:47;5.10;;;2.67;;
42726;SDS011;28372;56.832;60.658;2022-12-07T16:47:15;6.85;;;3.00;;
42726;SDS011;28372;56.832;60.658;2022-12-07T16:49:43;4.75;;;2.40;;
42726;SDS011;28372;56.832;60.658;2022-12-07T16:52:11;4.57;;;2.42;;
42726;SDS011;28372;56.832;60.658;2022-12-07T16:54:47;4.80;;;2.63;;
42726;SDS011;28372;56.832;60.658;2022-12-07T16:57:16;4.68;;;2.50;;
42726;SDS011;28372;56.832;60.658;2022-12-07T16:59:49;4.05;;;2.13;;
42726;SDS011;28372;56.832;60.658;2022-12-07T17:02:18;5.90;;;2.65;;
42726;SDS011;28372;56.832;60.658;2022-12-07T17:04:47;6.10;;;2.92;;
42726;SDS011;28372;56.832;60.658;2022-12-07T17:07:15;7.15;;;2.92;;
42726;SDS011;28372;56.832;60.658;2022-12-07T17:09:43;5.82;;;2.80;;
42726;SDS011;28372;56.832;60.658;2022-12-07T17:12:10;6.25;;;2.55;;
42726;SDS011;28372;56.832;60.658;2022-12-07T17:14:38;5.32;;;2.42;;
42726;SDS011;28372;56.832;60.658;2022-12-07T17:17:24;6.15;;;2.45;;
42726;SDS011;28372;56.832;60.658;2022-12-07T17:19:52;5.63;;;2.88;;
42726;SDS011;28372;56.832;60.658;2022-12-07T17:22:20;5.43;;;2.45;;
42726;SDS011;28372;56.832;60.658;2022-12-07T17:24:47;5.93;;;3.30;;
42726;SDS011;28372;56.832;60.658;2022-12-07T17:27:15;6.18;;;2.72;;
42726;SDS011;28372;56.832;60.658;2022-12-07T17:29:43;5.72;;;2.95;;